createdAt,value
2018-05-10T00:02:02.782Z,11.03
2018-05-10T00:04:30.300Z,9.10
2018-05-10T00:06:57.806Z,6.17
2018-05-10T00:09:25.454Z,7.83
2018-05-10T00:11:53.213Z,16.67
2018-05-10T00:14:20.727Z,7.97
2018-05-10T00:16:48.226Z,10.13
2018-05-10T00:19:15.885Z,10.83
2018-05-10T00:21:43.390Z,9.47
2018-05-10T00:24:10.905Z,14.33
2018-05-10T00:26:38.399Z,11.60
2018-05-10T00:29:06.941Z,9.33
2018-05-10T00:31:34.713Z,9.83
2018-05-10T00:34:02.218Z,8.23
2018-05-10T00:36:30.074Z,12.13
2018-05-10T00:38:58.359Z,10.70
2018-05-10T00:41:26.075Z,9.83
2018-05-10T00:43:53.565Z,10.77
2018-05-10T00:46:22.210Z,12.03
2018-05-10T00:48:49.938Z,9.70
2018-05-10T00:51:17.442Z,8.13
2018-05-10T00:53:45.177Z,6.93
2018-05-10T00:56:12.970Z,9.60
2018-05-10T00:58:40.474Z,7.03
2018-05-10T01:01:08.180Z,8.17
2018-05-10T01:03:35.941Z,10.13
2018-05-10T01:06:03.568Z,6.80
2018-05-10T01:08:31.161Z,8.30
2018-05-10T01:10:58.670Z,11.43
2018-05-10T01:13:26.396Z,5.00
2018-05-10T01:15:53.894Z,9.63
2018-05-10T01:18:21.598Z,6.73
2018-05-10T01:20:49.134Z,11.23
2018-05-10T01:23:16.818Z,10.53
2018-05-10T01:25:44.590Z,8.23
2018-05-10T01:28:12.100Z,10.03
2018-05-10T01:30:39.802Z,6.27
2018-05-10T01:33:07.334Z,8.83
2018-05-10T01:35:46.571Z,16.67
2018-05-10T01:38:14.084Z,6.37
2018-05-10T01:40:41.609Z,7.60
2018-05-10T01:43:09.123Z,15.30
2018-05-10T01:45:37.147Z,9.10
2018-05-10T01:48:04.683Z,9.23
2018-05-10T01:50:32.267Z,11.27
2018-05-10T01:52:59.814Z,4.70
2018-05-10T01:55:27.577Z,8.60
2018-05-10T01:57:55.097Z,8.80
2018-05-10T02:00:22.718Z,8.70
2018-05-10T02:02:50.257Z,9.57
2018-05-10T02:05:17.764Z,10.23
2018-05-10T02:07:45.463Z,9.80
2018-05-10T02:10:13.247Z,13.10
2018-05-10T02:12:41.000Z,8.60
2018-05-10T02:15:08.516Z,7.70
2018-05-10T02:17:36.199Z,10.63
2018-05-10T02:20:03.989Z,9.00
2018-05-10T02:22:31.495Z,16.20
2018-05-10T02:24:59.201Z,13.10
2018-05-10T02:27:26.982Z,8.27
2018-05-10T02:29:54.485Z,10.47
2018-05-10T02:32:21.986Z,14.77
2018-05-10T02:34:49.495Z,19.90
2018-05-10T02:37:17.074Z,14.03
2018-05-10T02:39:44.646Z,16.70
2018-05-10T02:42:12.290Z,11.97
2018-05-10T02:44:39.806Z,15.63
2018-05-10T02:47:08.091Z,8.00
2018-05-10T02:49:35.601Z,12.90
2018-05-10T02:52:03.118Z,17.00
2018-05-10T02:54:30.631Z,12.27
2018-05-10T02:56:58.338Z,12.03
2018-05-10T02:59:26.054Z,7.17
2018-05-10T03:01:53.815Z,14.13
2018-05-10T03:04:21.339Z,16.30
2018-05-10T03:06:49.008Z,16.50
2018-05-10T03:09:16.806Z,16.07
2018-05-10T03:11:44.566Z,13.10
2018-05-10T03:14:12.100Z,11.87
2018-05-10T03:16:39.605Z,9.13
2018-05-10T03:19:07.238Z,8.90
2018-05-10T03:21:34.759Z,10.00
2018-05-10T03:24:02.267Z,9.10
2018-05-10T03:26:29.787Z,13.13
2018-05-10T03:28:57.501Z,9.00
2018-05-10T03:31:25.143Z,11.63
2018-05-10T03:33:52.647Z,7.80
2018-05-10T03:36:20.166Z,10.33
2018-05-10T03:38:47.818Z,10.40
2018-05-10T03:41:15.334Z,9.10
2018-05-10T03:43:42.847Z,8.10
2018-05-10T03:46:10.369Z,11.13
2018-05-10T03:48:37.873Z,13.33
2018-05-10T03:51:05.393Z,13.43
2018-05-10T03:53:32.894Z,9.33
2018-05-10T03:56:01.241Z,16.10
2018-05-10T03:58:29.001Z,13.03
2018-05-10T04:00:56.509Z,10.37
2018-05-10T04:03:35.947Z,7.40
2018-05-10T04:06:16.290Z,7.73
2018-05-10T04:08:55.701Z,15.70
2018-05-10T04:11:26.150Z,6.50
2018-05-10T04:13:53.665Z,25.67
2018-05-10T04:16:21.167Z,9.23
2018-05-10T04:18:51.112Z,11.73
2018-05-10T04:21:18.786Z,12.57
2018-05-10T04:23:46.437Z,7.43
2018-05-10T04:26:14.711Z,14.77
2018-05-10T04:28:42.407Z,9.83
2018-05-10T04:31:09.929Z,9.10
2018-05-10T04:33:37.630Z,11.80
2018-05-10T04:36:05.393Z,17.50
2018-05-10T04:38:32.923Z,9.00
2018-05-10T04:41:00.426Z,9.33
2018-05-10T04:43:28.069Z,17.63
2018-05-10T04:45:55.588Z,14.40
2018-05-10T04:48:23.289Z,11.80
2018-05-10T04:50:50.805Z,27.47
2018-05-10T04:53:18.506Z,10.80
2018-05-10T04:55:46.029Z,11.30
2018-05-10T04:58:13.650Z,9.27
2018-05-10T05:00:42.108Z,18.90
2018-05-10T05:03:09.877Z,7.33
2018-05-10T05:05:37.638Z,9.47
2018-05-10T05:08:05.158Z,12.30
2018-05-10T05:10:32.849Z,8.13
2018-05-10T05:13:00.365Z,13.57
2018-05-10T05:15:28.038Z,21.40
2018-05-10T05:17:55.845Z,10.80
2018-05-10T05:20:23.350Z,12.73
2018-05-10T05:22:51.042Z,8.50
2018-05-10T05:25:18.826Z,16.73
2018-05-10T05:27:46.346Z,10.77
2018-05-10T05:30:14.007Z,10.80
2018-05-10T05:32:41.813Z,23.17
2018-05-10T05:35:09.310Z,9.83
2018-05-10T05:37:37.031Z,11.60
2018-05-10T05:40:04.789Z,11.97
2018-05-10T05:42:32.554Z,12.07
2018-05-10T05:45:00.329Z,18.77
2018-05-10T05:47:27.847Z,9.50
2018-05-10T05:49:55.535Z,9.27
2018-05-10T05:52:23.062Z,17.90
2018-05-10T05:54:50.722Z,12.13
2018-05-10T05:57:18.231Z,10.43
2018-05-10T05:59:45.854Z,17.13
2018-05-10T06:02:13.370Z,13.20
2018-05-10T06:04:40.906Z,11.23
2018-05-10T06:07:08.412Z,9.77
2018-05-10T06:09:36.087Z,8.57
2018-05-10T06:12:03.602Z,11.53
2018-05-10T06:14:31.340Z,16.80
2018-05-10T06:16:58.847Z,15.93
2018-05-10T06:19:26.554Z,14.70
2018-05-10T06:21:54.070Z,17.33
2018-05-10T06:24:21.741Z,13.70
2018-05-10T06:26:49.534Z,14.20
2018-05-10T06:29:17.042Z,13.73
2018-05-10T06:31:44.763Z,14.33
2018-05-10T06:34:12.276Z,18.00
2018-05-10T06:36:39.954Z,16.37
2018-05-10T06:39:07.466Z,9.00
2018-05-10T06:41:35.260Z,8.93
2018-05-10T06:44:02.727Z,22.00
2018-05-10T06:46:30.381Z,14.50
2018-05-10T06:48:57.889Z,12.87
2018-05-10T06:51:25.405Z,14.40
2018-05-10T06:53:53.414Z,15.33
2018-05-10T06:56:20.925Z,10.73
2018-05-10T06:58:48.598Z,11.77
2018-05-10T07:01:16.097Z,19.40
2018-05-10T07:03:43.626Z,16.07
2018-05-10T07:06:11.300Z,15.30
2018-05-10T07:08:38.818Z,19.50
2018-05-10T07:11:06.550Z,16.90
2018-05-10T07:13:34.839Z,21.57
2018-05-10T07:16:02.349Z,14.20
2018-05-10T07:18:29.867Z,20.93
2018-05-10T07:20:57.578Z,21.93
2018-05-10T07:23:25.345Z,14.90
2018-05-10T07:25:52.845Z,21.77
2018-05-10T07:28:20.368Z,26.27
2018-05-10T07:30:48.025Z,23.30
2018-05-10T07:33:15.773Z,19.23
2018-05-10T07:35:43.542Z,21.70
2018-05-10T07:38:11.064Z,22.40
2018-05-10T07:40:38.727Z,18.30
2018-05-10T07:43:06.236Z,19.83
2018-05-10T07:45:35.527Z,13.43
2018-05-10T07:48:03.038Z,11.10
2018-05-10T07:50:30.712Z,20.00
2018-05-10T07:52:58.210Z,21.43
2018-05-10T07:55:27.346Z,19.97
2018-05-10T07:57:54.861Z,41.93
2018-05-10T08:00:22.457Z,18.03
2018-05-10T08:02:50.188Z,12.87
2018-05-10T08:05:18.102Z,20.90
2018-05-10T08:07:45.698Z,11.57
2018-05-10T08:10:13.497Z,20.87
2018-05-10T08:12:40.991Z,14.63
2018-05-10T08:15:08.654Z,23.00
2018-05-10T08:17:36.162Z,12.83
2018-05-10T08:20:03.791Z,19.50
2018-05-10T08:22:31.301Z,12.47
2018-05-10T08:24:59.588Z,17.17
2018-05-10T08:27:37.009Z,18.60
2018-05-10T08:30:04.522Z,16.33
2018-05-10T08:32:32.251Z,16.90
2018-05-10T08:35:00.011Z,19.03
2018-05-10T08:37:27.562Z,28.90
2018-05-10T08:39:55.095Z,15.90
2018-05-10T08:42:22.596Z,13.13
2018-05-10T08:44:50.141Z,15.80
2018-05-10T08:47:17.664Z,19.73
2018-05-10T08:49:45.326Z,21.27
2018-05-10T08:52:12.830Z,11.73
2018-05-10T08:54:40.361Z,28.07
2018-05-10T08:57:07.867Z,44.17
2018-05-10T08:59:36.147Z,33.83
2018-05-10T09:02:03.870Z,17.63
2018-05-10T09:04:31.642Z,24.93
2018-05-10T09:06:59.154Z,17.40
2018-05-10T09:09:26.838Z,24.87
2018-05-10T09:11:54.330Z,15.33
2018-05-10T09:14:21.966Z,29.53
2018-05-10T09:16:49.473Z,22.17
2018-05-10T09:19:17.883Z,22.07
2018-05-10T09:21:45.674Z,14.70
2018-05-10T09:24:13.306Z,27.10
2018-05-10T09:26:40.794Z,13.80
2018-05-10T09:29:08.420Z,20.90
2018-05-10T09:31:36.099Z,17.07
2018-05-10T09:34:03.594Z,18.00
2018-05-10T09:36:31.096Z,21.50
2018-05-10T09:38:58.613Z,21.50
2018-05-10T09:41:26.123Z,21.97
2018-05-10T09:43:53.711Z,19.80
2018-05-10T09:46:21.209Z,27.80
2018-05-10T09:48:49.244Z,26.97
2018-05-10T09:51:18.534Z,34.93
2018-05-10T09:53:46.286Z,37.27
2018-05-10T09:56:13.804Z,17.07
2018-05-10T09:58:41.433Z,21.00
2018-05-10T10:01:08.933Z,16.77
2018-05-10T10:03:36.727Z,24.43
2018-05-10T10:06:04.241Z,25.90
2018-05-10T10:08:31.924Z,22.57
2018-05-10T10:10:59.733Z,20.50
2018-05-10T10:13:27.242Z,18.03
2018-05-10T10:15:54.815Z,18.67
2018-05-10T10:18:22.318Z,32.57
2018-05-10T10:20:49.837Z,24.07
2018-05-10T10:23:17.607Z,20.73
2018-05-10T10:25:45.376Z,28.43
2018-05-10T10:28:12.873Z,14.40
2018-05-10T10:30:40.590Z,19.93
2018-05-10T10:33:08.099Z,24.03
2018-05-10T10:35:35.650Z,31.57
2018-05-10T10:38:04.138Z,20.10
2018-05-10T10:40:32.566Z,16.77
2018-05-10T10:43:00.424Z,29.10
2018-05-10T10:45:28.161Z,22.83
2018-05-10T10:47:55.590Z,22.00
2018-05-10T10:50:23.285Z,23.77
2018-05-10T10:52:50.880Z,26.47
2018-05-10T10:55:18.311Z,16.67
2018-05-10T10:57:45.995Z,20.40
2018-05-10T11:00:13.510Z,18.63
2018-05-10T11:02:41.223Z,14.90
2018-05-10T11:05:08.737Z,20.10
2018-05-10T11:07:36.403Z,18.20
2018-05-10T11:10:04.209Z,17.40
2018-05-10T11:12:33.229Z,21.10
2018-05-10T11:15:00.739Z,21.00
2018-05-10T11:17:28.250Z,18.47
2018-05-10T11:19:56.526Z,20.33
2018-05-10T11:22:24.049Z,25.17
2018-05-10T11:24:51.568Z,20.50
2018-05-10T11:27:19.144Z,19.60
2018-05-10T11:29:46.603Z,15.80
2018-05-10T11:32:14.172Z,14.87
2018-05-10T11:34:41.846Z,21.50
2018-05-10T11:37:09.596Z,14.27
2018-05-10T11:39:37.372Z,15.43
2018-05-10T11:42:05.132Z,17.47
2018-05-10T11:44:32.978Z,18.87
2018-05-10T11:47:00.662Z,29.83
2018-05-10T11:49:28.208Z,41.23
2018-05-10T11:51:55.869Z,36.13
2018-05-10T11:54:23.605Z,26.27
2018-05-10T11:56:51.116Z,33.47
2018-05-10T11:59:18.630Z,23.23
2018-05-10T12:01:46.286Z,21.83
2018-05-10T12:04:13.798Z,17.13
2018-05-10T12:06:41.314Z,18.57
2018-05-10T12:09:08.841Z,15.60
2018-05-10T12:11:37.115Z,17.40
2018-05-10T12:14:04.806Z,20.63
2018-05-10T12:16:32.586Z,26.80
2018-05-10T12:19:00.101Z,16.47
2018-05-10T12:21:27.610Z,22.77
2018-05-10T12:23:55.246Z,14.43
2018-05-10T12:26:22.766Z,13.87
2018-05-10T12:28:50.296Z,24.40
2018-05-10T12:31:17.833Z,23.53
2018-05-10T12:33:45.475Z,15.87
2018-05-10T12:36:13.157Z,16.63
2018-05-10T12:38:40.662Z,18.33
2018-05-10T12:41:08.389Z,20.70
2018-05-10T12:43:36.154Z,20.73
2018-05-10T12:46:03.786Z,43.50
2018-05-10T12:48:31.338Z,31.10
2018-05-10T12:50:59.450Z,26.87
2018-05-10T12:53:28.470Z,42.97
2018-05-10T12:55:56.191Z,43.40
2018-05-10T12:58:23.960Z,36.10
2018-05-10T13:00:51.776Z,41.03
2018-05-10T13:03:19.221Z,44.60
2018-05-10T13:05:46.950Z,47.73
2018-05-10T13:08:14.597Z,69.07
2018-05-10T13:10:42.176Z,68.73
2018-05-10T13:13:09.954Z,65.37
2018-05-10T13:15:37.667Z,72.50
2018-05-10T13:18:05.454Z,72.47
2018-05-10T13:20:32.970Z,88.63
2018-05-10T13:23:00.490Z,70.90
2018-05-10T13:25:28.153Z,77.17
2018-05-10T13:27:55.890Z,81.47
2018-05-10T13:30:23.426Z,81.17
2018-05-10T13:32:51.123Z,83.67
2018-05-10T13:35:18.651Z,80.93
2018-05-10T13:37:46.337Z,77.50
2018-05-10T13:40:13.851Z,74.80
2018-05-10T13:42:41.507Z,67.13
2018-05-10T13:45:09.069Z,75.97
2018-05-10T13:47:36.801Z,62.23
2018-05-10T13:50:04.526Z,62.90
2018-05-10T13:52:32.047Z,58.10
2018-05-10T13:54:59.558Z,58.80
2018-05-10T13:57:27.218Z,53.97
2018-05-10T13:59:54.740Z,51.43
2018-05-10T14:02:22.413Z,53.80
2018-05-10T14:04:49.935Z,40.90
2018-05-10T14:07:17.480Z,38.37
2018-05-10T14:09:45.006Z,42.00
2018-05-10T14:12:12.535Z,37.10
2018-05-10T14:14:40.558Z,37.70
2018-05-10T14:17:08.098Z,46.83
2018-05-10T14:19:35.598Z,52.33
2018-05-10T14:22:03.128Z,54.53
2018-05-10T14:24:30.776Z,50.97
2018-05-10T14:26:58.550Z,45.17
2018-05-10T14:29:26.313Z,51.03
2018-05-10T14:31:53.849Z,57.53
2018-05-10T14:34:21.491Z,48.63
2018-05-10T14:36:49.781Z,57.03
2018-05-10T14:39:17.305Z,52.67
2018-05-10T14:41:44.825Z,66.10
2018-05-10T14:44:12.339Z,44.50
2018-05-10T14:46:40.097Z,41.20
2018-05-10T14:49:07.814Z,45.23
2018-05-10T14:51:35.343Z,47.50
2018-05-10T14:54:02.899Z,32.30
2018-05-10T14:56:30.770Z,37.37
2018-05-10T14:58:58.308Z,34.80
2018-05-10T15:01:25.970Z,54.30
2018-05-10T15:03:53.487Z,36.07
2018-05-10T15:06:21.016Z,35.50
2018-05-10T15:08:48.535Z,36.07
2018-05-10T15:11:16.051Z,30.20
2018-05-10T15:13:43.558Z,38.63
2018-05-10T15:16:11.088Z,37.60
2018-05-10T15:18:39.372Z,36.87
2018-05-10T15:21:07.189Z,39.43
2018-05-10T15:23:34.785Z,38.63
2018-05-10T15:26:02.318Z,50.13
2018-05-10T15:28:30.605Z,43.47
2018-05-10T15:30:59.011Z,46.30
2018-05-10T15:33:26.526Z,34.43
2018-05-10T15:35:54.078Z,43.13
2018-05-10T15:38:21.834Z,45.40
2018-05-10T15:40:49.351Z,50.43
2018-05-10T15:43:16.867Z,49.20
2018-05-10T15:45:44.385Z,49.43
2018-05-10T15:48:11.904Z,46.27
2018-05-10T15:50:39.410Z,41.27
2018-05-10T15:53:07.064Z,46.47
2018-05-10T15:55:34.555Z,48.90
2018-05-10T15:58:02.086Z,46.37
2018-05-10T16:00:29.599Z,47.30
2018-05-10T16:02:57.121Z,35.37
2018-05-10T16:05:24.755Z,44.47
2018-05-10T16:07:52.261Z,41.40
2018-05-10T16:10:20.015Z,34.73
2018-05-10T16:12:47.544Z,23.20
2018-05-10T16:15:15.230Z,31.13
2018-05-10T16:17:42.752Z,16.27
2018-05-10T16:20:10.261Z,15.70
2018-05-10T16:22:37.898Z,22.10
2018-05-10T16:25:06.310Z,11.23
2018-05-10T16:27:34.007Z,10.10
2018-05-10T16:30:01.798Z,21.50
2018-05-10T16:32:29.306Z,8.50
2018-05-10T16:34:57.018Z,7.67
2018-05-10T16:37:24.550Z,12.93
2018-05-10T16:39:52.785Z,14.07
2018-05-10T16:42:20.314Z,11.43
2018-05-10T16:44:48.096Z,11.67
2018-05-10T16:47:15.614Z,13.70
2018-05-10T16:49:43.290Z,10.40
2018-05-10T16:52:10.818Z,10.17
2018-05-10T16:54:38.322Z,5.90
2018-05-10T16:57:05.835Z,22.17
2018-05-10T16:59:33.422Z,11.83
2018-05-10T17:02:01.190Z,9.57
2018-05-10T17:04:28.715Z,13.20
2018-05-10T17:06:56.590Z,10.60
2018-05-10T17:09:24.181Z,12.70
2018-05-10T17:11:51.926Z,12.40
2018-05-10T17:14:19.694Z,7.37
2018-05-10T17:16:47.211Z,18.17
2018-05-10T17:19:14.718Z,8.80
2018-05-10T17:21:42.231Z,11.60
2018-05-10T17:24:09.834Z,16.93
2018-05-10T17:26:37.598Z,12.60
2018-05-10T17:29:05.114Z,14.07
2018-05-10T17:31:32.617Z,13.43
2018-05-10T17:34:00.126Z,9.03
2018-05-10T17:36:27.628Z,5.73
2018-05-10T17:38:55.164Z,25.10
2018-05-10T17:41:22.954Z,14.83
2018-05-10T17:43:50.471Z,18.77
2018-05-10T17:46:17.982Z,10.67
2018-05-10T17:48:45.599Z,17.83
2018-05-10T17:51:13.098Z,17.73
2018-05-10T17:53:40.623Z,11.43
2018-05-10T17:56:08.215Z,13.43
2018-05-10T17:58:35.764Z,8.73
2018-05-10T18:01:03.351Z,12.60
2018-05-10T18:03:30.978Z,13.80
2018-05-10T18:05:58.748Z,21.10
2018-05-10T18:08:26.502Z,9.77
2018-05-10T18:10:54.010Z,12.87
2018-05-10T18:13:21.539Z,10.77
2018-05-10T18:15:49.146Z,18.50
2018-05-10T18:18:16.666Z,11.30
2018-05-10T18:20:44.170Z,15.90
2018-05-10T18:23:11.743Z,15.90
2018-05-10T18:25:40.199Z,19.30
2018-05-10T18:28:07.717Z,8.83
2018-05-10T18:30:35.544Z,14.23
2018-05-10T18:33:03.050Z,17.70
2018-05-10T18:35:31.606Z,12.07
2018-05-10T18:37:59.126Z,17.67
2018-05-10T18:40:26.666Z,11.60
2018-05-10T18:42:54.198Z,19.60
2018-05-10T18:45:21.730Z,17.60
2018-05-10T18:47:49.234Z,8.97
2018-05-10T18:50:16.961Z,15.23
2018-05-10T18:52:44.470Z,16.83
2018-05-10T18:55:12.124Z,13.00
2018-05-10T18:57:39.622Z,8.70
2018-05-10T19:00:07.418Z,20.47
2018-05-10T19:02:34.935Z,15.73
2018-05-10T19:05:02.585Z,16.10
2018-05-10T19:07:30.414Z,17.80
2018-05-10T19:09:57.906Z,18.57
2018-05-10T19:12:25.609Z,18.80
2018-05-10T19:14:53.139Z,12.83
2018-05-10T19:17:20.818Z,21.60
2018-05-10T19:19:48.357Z,10.27
2018-05-10T19:22:15.860Z,14.33
2018-05-10T19:24:43.498Z,13.93
2018-05-10T19:27:11.011Z,16.53
2018-05-10T19:29:38.714Z,12.63
2018-05-10T19:32:06.224Z,13.03
2018-05-10T19:34:33.736Z,20.53
2018-05-10T19:37:01.984Z,9.13
2018-05-10T19:39:29.490Z,16.07
2018-05-10T19:41:57.231Z,22.37
2018-05-10T19:44:24.767Z,15.73
2018-05-10T19:46:52.258Z,13.67
2018-05-10T19:49:19.783Z,15.47
2018-05-10T19:51:47.364Z,14.93
2018-05-10T19:54:14.871Z,21.73
2018-05-10T19:56:42.389Z,23.47
2018-05-10T19:59:09.899Z,16.07
2018-05-10T20:01:37.485Z,18.90
2018-05-10T20:04:05.008Z,19.33
2018-05-10T20:06:32.555Z,25.50
2018-05-10T20:09:00.830Z,21.27
2018-05-10T20:11:28.333Z,27.77
2018-05-10T20:13:55.844Z,14.33
2018-05-10T20:16:24.122Z,19.83
2018-05-10T20:18:51.637Z,18.37
2018-05-10T20:21:19.290Z,13.60
2018-05-10T20:23:47.050Z,10.80
2018-05-10T20:26:14.814Z,18.20
2018-05-10T20:28:42.324Z,17.23
2018-05-10T20:31:10.038Z,15.83
2018-05-10T20:33:37.545Z,24.70
2018-05-10T20:36:05.253Z,19.40
2018-05-10T20:38:32.753Z,11.00
2018-05-10T20:41:00.473Z,16.00
2018-05-10T20:43:28.238Z,16.90
2018-05-10T20:45:56.006Z,25.67
2018-05-10T20:48:23.510Z,19.43
2018-05-10T20:50:51.222Z,26.10
2018-05-10T20:53:18.744Z,16.13
2018-05-10T20:55:46.279Z,16.30
2018-05-10T20:58:14.554Z,21.40
2018-05-10T21:00:42.070Z,19.93
2018-05-10T21:05:42.686Z,13.93
2018-05-10T21:08:10.227Z,17.07
2018-05-10T21:10:37.938Z,12.97
2018-05-10T21:13:05.846Z,14.47
2018-05-10T21:15:34.574Z,16.03
2018-05-10T21:18:02.151Z,15.60
2018-05-10T21:20:29.692Z,18.87
2018-05-10T21:22:58.451Z,16.13
2018-05-10T21:25:25.990Z,18.57
2018-05-10T21:27:53.489Z,21.33
2018-05-10T21:30:21.289Z,29.57
2018-05-10T21:32:48.872Z,30.83
2018-05-10T21:35:16.504Z,18.13
2018-05-10T21:37:44.167Z,26.13
2018-05-10T21:40:11.756Z,15.73
2018-05-10T21:42:39.396Z,12.93
2018-05-10T21:45:06.934Z,20.13
2018-05-10T21:47:34.444Z,16.83
2018-05-10T21:50:04.784Z,26.23
2018-05-10T21:52:32.383Z,15.53
2018-05-10T21:54:59.971Z,16.63
2018-05-10T21:57:27.506Z,19.23
2018-05-10T21:59:55.223Z,28.50
2018-05-10T22:02:23.750Z,19.03
2018-05-10T22:04:51.254Z,16.50
2018-05-10T22:07:19.679Z,12.93
2018-05-10T22:09:47.393Z,17.43
2018-05-10T22:12:15.251Z,20.37
2018-05-10T22:14:42.826Z,14.97
2018-05-10T22:17:10.338Z,19.23
2018-05-10T22:19:37.960Z,26.67
2018-05-10T22:22:05.527Z,13.83
2018-05-10T22:24:33.113Z,19.43
2018-05-10T22:27:00.530Z,20.93
2018-05-10T22:29:28.030Z,21.23
2018-05-10T22:31:55.757Z,25.90
2018-05-10T22:34:23.536Z,14.20
2018-05-10T22:36:51.029Z,13.07
2018-05-10T22:39:18.566Z,16.67
2018-05-10T22:41:46.202Z,15.30
2018-05-10T22:44:13.728Z,19.90
2018-05-10T22:46:41.426Z,13.67
2018-05-10T22:49:08.925Z,12.30
2018-05-10T22:51:36.646Z,13.83
2018-05-10T22:54:04.158Z,22.43
2018-05-10T22:56:31.861Z,26.20
2018-05-10T22:58:59.372Z,13.70
2018-05-10T23:01:27.054Z,23.07
2018-05-10T23:03:54.562Z,11.30
2018-05-10T23:06:22.074Z,23.27
2018-05-10T23:08:49.754Z,16.27
2018-05-10T23:11:17.270Z,17.30
2018-05-10T23:13:44.779Z,13.53
2018-05-10T23:16:12.302Z,17.30
2018-05-10T23:18:39.886Z,17.30
2018-05-10T23:21:07.513Z,27.40
2018-05-10T23:23:35.018Z,16.97
2018-05-10T23:26:02.541Z,11.60
2018-05-10T23:28:30.326Z,12.77
2018-05-10T23:30:57.842Z,23.00
2018-05-10T23:33:25.545Z,29.47
2018-05-10T23:35:53.084Z,17.80
2018-05-10T23:38:20.590Z,12.13
2018-05-10T23:40:48.142Z,19.13
2018-05-10T23:43:15.657Z,14.63
2018-05-10T23:45:43.450Z,16.33
2018-05-10T23:48:11.391Z,12.17
2018-05-10T23:50:38.974Z,19.57
2018-05-10T23:53:06.494Z,13.40
2018-05-10T23:55:34.117Z,14.37
2018-05-10T23:58:02.517Z,16.17
